Main page
METAR-TAF:

METAR-TAF

Airports :

Nador International Airport

Nador, Morocco

latitude: 34-59-20N, longitude: 003-01-42W, elevation: 175 m

Current weather observation

The report was made 39 minutes ago, at 12:00 UTC
Wind 2 kt from the South/Southwest
Temperature 18°C
Humidity 34%
Pressure 1020 hPa
Visibility 10 km or more
no clouds below 1500 m and no cumulonimbus

METAR: GMMW 291200Z 21002KT CAVOK 18/02 Q1020 NOSIG

Time: 13:39 (12:39 UTC)

Forecast

The report was made 1 hour and 39 minutes ago, at 11:00 UTC
Forecast valid from 29 at 12 UTC to 30 at 18 UTC
Wind 6 kt from the North
Visibility 10 km or more
no clouds below 1500 m and no cumulonimbus

TAF: GMMW 291100Z 2912/3018 01006KT CAVOK

Weather observations and forecasts of more than 4000 airports (METAR and TAF reports).

The available stations are represented by yellow and red dots on the map.

Hover mouse over dot to see the name of the station.

Then click to see weather observations and forecasts.

To change the map : click on the green buttons with a black cross to zoom in, on the green button with a dash to zoom out, or on the green arrows for adjacent maps.


METAR-TAF: